sensor_id;sensor_type;location;lat;lon;timestamp;P1;durP1;ratioP1;P2;durP2;ratioP2
14358;SDS011;7263;49.418;11.064;2022-08-19T00:01:19;16.45;;;14.95;;
14358;SDS011;7263;49.418;11.064;2022-08-19T00:03:46;15.13;;;13.63;;
14358;SDS011;7263;49.418;11.064;2022-08-19T00:06:13;16.58;;;14.90;;
14358;SDS011;7263;49.418;11.064;2022-08-19T00:08:40;15.73;;;14.30;;
14358;SDS011;7263;49.418;11.064;2022-08-19T00:11:08;14.60;;;13.35;;
14358;SDS011;7263;49.418;11.064;2022-08-19T00:13:37;17.20;;;15.27;;
14358;SDS011;7263;49.418;11.064;2022-08-19T00:16:04;15.02;;;13.73;;
14358;SDS011;7263;49.418;11.064;2022-08-19T00:18:32;15.65;;;14.23;;
14358;SDS011;7263;49.418;11.064;2022-08-19T00:20:59;15.90;;;14.57;;
14358;SDS011;7263;49.418;11.064;2022-08-19T00:23:26;15.80;;;14.40;;
14358;SDS011;7263;49.418;11.064;2022-08-19T00:25:53;15.55;;;14.20;;
14358;SDS011;7263;49.418;11.064;2022-08-19T00:28:20;17.80;;;16.20;;
14358;SDS011;7263;49.418;11.064;2022-08-19T00:30:48;15.90;;;14.60;;
14358;SDS011;7263;49.418;11.064;2022-08-19T00:33:16;16.83;;;15.30;;
14358;SDS011;7263;49.418;11.064;2022-08-19T00:35:43;16.77;;;15.27;;
14358;SDS011;7263;49.418;11.064;2022-08-19T00:38:10;15.68;;;14.40;;
14358;SDS011;7263;49.418;11.064;2022-08-19T00:40:37;17.17;;;15.60;;
14358;SDS011;7263;49.418;11.064;2022-08-19T00:43:07;16.50;;;15.05;;
14358;SDS011;7263;49.418;11.064;2022-08-19T00:45:36;15.80;;;14.50;;
14358;SDS011;7263;49.418;11.064;2022-08-19T00:48:04;16.38;;;14.98;;
14358;SDS011;7263;49.418;11.064;2022-08-19T00:50:31;16.70;;;15.38;;
14358;SDS011;7263;49.418;11.064;2022-08-19T00:52:59;16.38;;;14.95;;
14358;SDS011;7263;49.418;11.064;2022-08-19T00:55:29;15.77;;;14.48;;
14358;SDS011;7263;49.418;11.064;2022-08-19T00:57:59;16.05;;;14.63;;
14358;SDS011;7263;49.418;11.064;2022-08-19T01:00:28;15.63;;;14.38;;
14358;SDS011;7263;49.418;11.064;2022-08-19T01:02:57;16.25;;;14.77;;
14358;SDS011;7263;49.418;11.064;2022-08-19T01:05:26;16.17;;;14.88;;
14358;SDS011;7263;49.418;11.064;2022-08-19T01:07:55;17.00;;;15.40;;
14358;SDS011;7263;49.418;11.064;2022-08-19T01:10:25;16.25;;;14.80;;
14358;SDS011;7263;49.418;11.064;2022-08-19T01:12:55;16.85;;;15.45;;
14358;SDS011;7263;49.418;11.064;2022-08-19T01:15:26;17.33;;;15.82;;
14358;SDS011;7263;49.418;11.064;2022-08-19T01:17:55;18.08;;;16.48;;
14358;SDS011;7263;49.418;11.064;2022-08-19T01:20:27;16.42;;;15.00;;
14358;SDS011;7263;49.418;11.064;2022-08-19T01:22:56;17.42;;;15.93;;
14358;SDS011;7263;49.418;11.064;2022-08-19T01:25:26;17.52;;;15.70;;
14358;SDS011;7263;49.418;11.064;2022-08-19T01:27:56;18.05;;;16.58;;
14358;SDS011;7263;49.418;11.064;2022-08-19T01:30:24;17.05;;;15.52;;
14358;SDS011;7263;49.418;11.064;2022-08-19T01:32:53;17.70;;;16.08;;
14358;SDS011;7263;49.418;11.064;2022-08-19T01:35:21;18.63;;;16.90;;
14358;SDS011;7263;49.418;11.064;2022-08-19T01:37:50;17.75;;;16.20;;
14358;SDS011;7263;49.418;11.064;2022-08-19T01:40:21;18.02;;;16.52;;
14358;SDS011;7263;49.418;11.064;2022-08-19T01:42:51;17.60;;;16.08;;
14358;SDS011;7263;49.418;11.064;2022-08-19T01:45:19;18.00;;;16.20;;
14358;SDS011;7263;49.418;11.064;2022-08-19T01:47:47;18.75;;;17.00;;
14358;SDS011;7263;49.418;11.064;2022-08-19T01:50:14;19.67;;;17.67;;
14358;SDS011;7263;49.418;11.064;2022-08-19T01:52:42;19.00;;;17.20;;
14358;SDS011;7263;49.418;11.064;2022-08-19T01:55:11;18.13;;;16.42;;
14358;SDS011;7263;49.418;11.064;2022-08-19T01:57:47;19.25;;;17.55;;
14358;SDS011;7263;49.418;11.064;2022-08-19T02:00:18;19.65;;;17.75;;
14358;SDS011;7263;49.418;11.064;2022-08-19T02:02:46;18.50;;;16.77;;
14358;SDS011;7263;49.418;11.064;2022-08-19T02:05:13;18.33;;;16.83;;
14358;SDS011;7263;49.418;11.064;2022-08-19T02:07:45;19.40;;;17.67;;
14358;SDS011;7263;49.418;11.064;2022-08-19T02:10:13;18.40;;;16.67;;
14358;SDS011;7263;49.418;11.064;2022-08-19T02:12:47;19.38;;;17.70;;
14358;SDS011;7263;49.418;11.064;2022-08-19T02:15:15;18.55;;;17.05;;
14358;SDS011;7263;49.418;11.064;2022-08-19T02:17:43;18.45;;;16.88;;
14358;SDS011;7263;49.418;11.064;2022-08-19T02:20:11;18.60;;;16.83;;
14358;SDS011;7263;49.418;11.064;2022-08-19T02:22:39;19.63;;;17.83;;
14358;SDS011;7263;49.418;11.064;2022-08-19T02:25:07;20.20;;;18.40;;
14358;SDS011;7263;49.418;11.064;2022-08-19T02:27:35;20.67;;;18.55;;
14358;SDS011;7263;49.418;11.064;2022-08-19T02:30:04;19.98;;;18.15;;
14358;SDS011;7263;49.418;11.064;2022-08-19T02:32:33;19.23;;;17.25;;
14358;SDS011;7263;49.418;11.064;2022-08-19T02:35:00;19.02;;;17.42;;
14358;SDS011;7263;49.418;11.064;2022-08-19T02:37:27;20.40;;;18.58;;
14358;SDS011;7263;49.418;11.064;2022-08-19T02:40:12;19.80;;;18.00;;
14358;SDS011;7263;49.418;11.064;2022-08-19T02:42:39;19.35;;;17.75;;
14358;SDS011;7263;49.418;11.064;2022-08-19T02:45:09;20.45;;;18.65;;
14358;SDS011;7263;49.418;11.064;2022-08-19T02:47:36;20.40;;;18.60;;
14358;SDS011;7263;49.418;11.064;2022-08-19T02:50:03;21.05;;;19.08;;
14358;SDS011;7263;49.418;11.064;2022-08-19T02:52:31;21.98;;;19.75;;
14358;SDS011;7263;49.418;11.064;2022-08-19T02:54:58;20.42;;;18.50;;
14358;SDS011;7263;49.418;11.064;2022-08-19T02:57:26;20.23;;;18.42;;
14358;SDS011;7263;49.418;11.064;2022-08-19T02:59:53;21.10;;;19.23;;
14358;SDS011;7263;49.418;11.064;2022-08-19T03:02:21;20.00;;;18.30;;
14358;SDS011;7263;49.418;11.064;2022-08-19T03:04:48;22.30;;;20.20;;
14358;SDS011;7263;49.418;11.064;2022-08-19T03:07:16;30.88;;;28.00;;
14358;SDS011;7263;49.418;11.064;2022-08-19T03:09:43;27.33;;;24.83;;
14358;SDS011;7263;49.418;11.064;2022-08-19T03:12:10;20.70;;;18.70;;
14358;SDS011;7263;49.418;11.064;2022-08-19T03:14:37;20.88;;;19.05;;
14358;SDS011;7263;49.418;11.064;2022-08-19T03:17:04;20.90;;;18.98;;
14358;SDS011;7263;49.418;11.064;2022-08-19T03:19:33;19.90;;;18.10;;
14358;SDS011;7263;49.418;11.064;2022-08-19T03:22:00;19.75;;;18.02;;
14358;SDS011;7263;49.418;11.064;2022-08-19T03:24:27;21.30;;;19.40;;
14358;SDS011;7263;49.418;11.064;2022-08-19T03:26:55;21.52;;;19.42;;
14358;SDS011;7263;49.418;11.064;2022-08-19T03:29:24;22.20;;;20.10;;
14358;SDS011;7263;49.418;11.064;2022-08-19T03:31:52;22.95;;;20.95;;
14358;SDS011;7263;49.418;11.064;2022-08-19T03:34:22;22.40;;;20.38;;
14358;SDS011;7263;49.418;11.064;2022-08-19T03:36:52;22.33;;;20.33;;
14358;SDS011;7263;49.418;11.064;2022-08-19T03:39:20;23.83;;;21.52;;
14358;SDS011;7263;49.418;11.064;2022-08-19T03:41:48;22.50;;;20.35;;
14358;SDS011;7263;49.418;11.064;2022-08-19T03:44:16;23.33;;;21.23;;
14358;SDS011;7263;49.418;11.064;2022-08-19T03:46:46;29.63;;;26.83;;
14358;SDS011;7263;49.418;11.064;2022-08-19T03:49:14;24.08;;;21.90;;
14358;SDS011;7263;49.418;11.064;2022-08-19T03:51:42;22.83;;;20.60;;
14358;SDS011;7263;49.418;11.064;2022-08-19T03:54:12;22.20;;;20.30;;
14358;SDS011;7263;49.418;11.064;2022-08-19T03:56:41;23.88;;;21.58;;
14358;SDS011;7263;49.418;11.064;2022-08-19T03:59:10;23.85;;;21.67;;
14358;SDS011;7263;49.418;11.064;2022-08-19T04:01:39;23.30;;;21.13;;
14358;SDS011;7263;49.418;11.064;2022-08-19T04:04:06;23.20;;;20.90;;
14358;SDS011;7263;49.418;11.064;2022-08-19T04:06:34;24.85;;;22.50;;
14358;SDS011;7263;49.418;11.064;2022-08-19T04:09:02;47.75;;;43.08;;
14358;SDS011;7263;49.418;11.064;2022-08-19T04:11:36;27.15;;;24.63;;
14358;SDS011;7263;49.418;11.064;2022-08-19T04:14:07;24.50;;;22.13;;
14358;SDS011;7263;49.418;11.064;2022-08-19T04:16:34;23.02;;;20.90;;
14358;SDS011;7263;49.418;11.064;2022-08-19T04:19:02;23.48;;;21.38;;
14358;SDS011;7263;49.418;11.064;2022-08-19T04:21:30;24.58;;;22.35;;
14358;SDS011;7263;49.418;11.064;2022-08-19T04:23:57;25.13;;;22.75;;
14358;SDS011;7263;49.418;11.064;2022-08-19T04:26:26;25.08;;;22.75;;
14358;SDS011;7263;49.418;11.064;2022-08-19T04:28:55;23.75;;;21.65;;
14358;SDS011;7263;49.418;11.064;2022-08-19T04:31:22;23.90;;;21.70;;
14358;SDS011;7263;49.418;11.064;2022-08-19T04:33:51;23.02;;;20.67;;
14358;SDS011;7263;49.418;11.064;2022-08-19T04:36:19;23.20;;;21.00;;
14358;SDS011;7263;49.418;11.064;2022-08-19T04:38:47;21.42;;;19.45;;
14358;SDS011;7263;49.418;11.064;2022-08-19T04:41:15;22.17;;;19.98;;
14358;SDS011;7263;49.418;11.064;2022-08-19T04:44:01;21.80;;;19.70;;
14358;SDS011;7263;49.418;11.064;2022-08-19T04:46:29;21.55;;;19.58;;
14358;SDS011;7263;49.418;11.064;2022-08-19T04:48:56;23.65;;;21.25;;
14358;SDS011;7263;49.418;11.064;2022-08-19T04:51:24;19.88;;;17.98;;
14358;SDS011;7263;49.418;11.064;2022-08-19T04:53:51;19.35;;;17.52;;
14358;SDS011;7263;49.418;11.064;2022-08-19T04:56:19;21.08;;;19.10;;
14358;SDS011;7263;49.418;11.064;2022-08-19T04:58:47;20.77;;;18.85;;
14358;SDS011;7263;49.418;11.064;2022-08-19T05:01:20;22.65;;;20.38;;
14358;SDS011;7263;49.418;11.064;2022-08-19T05:03:48;22.80;;;20.73;;
14358;SDS011;7263;49.418;11.064;2022-08-19T05:06:16;24.35;;;21.98;;
14358;SDS011;7263;49.418;11.064;2022-08-19T05:08:44;22.83;;;20.67;;
14358;SDS011;7263;49.418;11.064;2022-08-19T05:11:13;23.33;;;20.83;;
14358;SDS011;7263;49.418;11.064;2022-08-19T05:13:43;22.77;;;20.50;;
14358;SDS011;7263;49.418;11.064;2022-08-19T05:16:11;23.08;;;20.77;;
14358;SDS011;7263;49.418;11.064;2022-08-19T05:18:40;24.63;;;21.70;;
14358;SDS011;7263;49.418;11.064;2022-08-19T05:21:24;23.75;;;21.45;;
14358;SDS011;7263;49.418;11.064;2022-08-19T05:24:09;21.25;;;19.25;;
14358;SDS011;7263;49.418;11.064;2022-08-19T05:26:38;22.17;;;20.05;;
14358;SDS011;7263;49.418;11.064;2022-08-19T05:29:07;22.67;;;20.48;;
14358;SDS011;7263;49.418;11.064;2022-08-19T05:31:35;23.17;;;20.92;;
14358;SDS011;7263;49.418;11.064;2022-08-19T05:34:04;21.42;;;19.48;;
14358;SDS011;7263;49.418;11.064;2022-08-19T05:36:33;22.60;;;20.50;;
14358;SDS011;7263;49.418;11.064;2022-08-19T05:39:03;22.55;;;19.88;;
14358;SDS011;7263;49.418;11.064;2022-08-19T05:41:31;22.02;;;20.02;;
14358;SDS011;7263;49.418;11.064;2022-08-19T05:44:00;24.00;;;21.67;;
14358;SDS011;7263;49.418;11.064;2022-08-19T05:46:31;22.25;;;20.13;;
14358;SDS011;7263;49.418;11.064;2022-08-19T05:48:58;22.80;;;20.70;;
14358;SDS011;7263;49.418;11.064;2022-08-19T05:51:26;21.20;;;18.35;;
14358;SDS011;7263;49.418;11.064;2022-08-19T05:53:53;20.90;;;18.83;;
14358;SDS011;7263;49.418;11.064;2022-08-19T05:56:20;20.38;;;18.40;;
14358;SDS011;7263;49.418;11.064;2022-08-19T05:58:47;19.02;;;17.23;;
14358;SDS011;7263;49.418;11.064;2022-08-19T06:01:15;22.63;;;20.42;;
14358;SDS011;7263;49.418;11.064;2022-08-19T06:03:43;23.27;;;20.67;;
14358;SDS011;7263;49.418;11.064;2022-08-19T06:06:11;21.20;;;18.98;;
14358;SDS011;7263;49.418;11.064;2022-08-19T06:08:42;23.13;;;19.33;;
14358;SDS011;7263;49.418;11.064;2022-08-19T06:11:18;20.77;;;18.77;;
14358;SDS011;7263;49.418;11.064;2022-08-19T06:13:47;21.55;;;19.25;;
14358;SDS011;7263;49.418;11.064;2022-08-19T06:16:17;21.00;;;19.05;;
14358;SDS011;7263;49.418;11.064;2022-08-19T06:18:48;19.63;;;17.85;;
14358;SDS011;7263;49.418;11.064;2022-08-19T06:21:18;20.30;;;17.95;;
14358;SDS011;7263;49.418;11.064;2022-08-19T06:23:47;17.50;;;15.88;;
14358;SDS011;7263;49.418;11.064;2022-08-19T06:26:15;17.67;;;15.90;;
14358;SDS011;7263;49.418;11.064;2022-08-19T06:28:43;17.65;;;16.02;;
14358;SDS011;7263;49.418;11.064;2022-08-19T06:31:11;16.55;;;14.95;;
14358;SDS011;7263;49.418;11.064;2022-08-19T06:33:39;15.93;;;14.52;;
14358;SDS011;7263;49.418;11.064;2022-08-19T06:36:07;15.88;;;14.30;;
14358;SDS011;7263;49.418;11.064;2022-08-19T06:38:41;14.65;;;13.45;;
14358;SDS011;7263;49.418;11.064;2022-08-19T06:41:10;15.98;;;14.40;;
14358;SDS011;7263;49.418;11.064;2022-08-19T06:43:36;16.60;;;15.00;;
14358;SDS011;7263;49.418;11.064;2022-08-19T06:46:03;16.50;;;15.00;;
14358;SDS011;7263;49.418;11.064;2022-08-19T06:48:35;18.98;;;17.10;;
14358;SDS011;7263;49.418;11.064;2022-08-19T06:51:02;19.38;;;17.60;;
14358;SDS011;7263;49.418;11.064;2022-08-19T06:53:30;16.88;;;15.40;;
14358;SDS011;7263;49.418;11.064;2022-08-19T06:55:57;18.95;;;17.33;;
14358;SDS011;7263;49.418;11.064;2022-08-19T06:58:28;18.92;;;17.00;;
14358;SDS011;7263;49.418;11.064;2022-08-19T07:00:58;18.13;;;16.42;;
14358;SDS011;7263;49.418;11.064;2022-08-19T07:03:28;17.95;;;16.30;;
14358;SDS011;7263;49.418;11.064;2022-08-19T07:05:57;15.55;;;14.13;;
14358;SDS011;7263;49.418;11.064;2022-08-19T07:08:24;15.93;;;14.30;;
14358;SDS011;7263;49.418;11.064;2022-08-19T07:10:52;16.40;;;14.88;;
14358;SDS011;7263;49.418;11.064;2022-08-19T07:13:19;16.27;;;14.82;;
14358;SDS011;7263;49.418;11.064;2022-08-19T07:15:49;18.15;;;16.45;;
14358;SDS011;7263;49.418;11.064;2022-08-19T07:18:16;16.23;;;14.65;;
14358;SDS011;7263;49.418;11.064;2022-08-19T07:20:44;13.63;;;12.38;;
14358;SDS011;7263;49.418;11.064;2022-08-19T07:23:11;13.02;;;11.93;;
14358;SDS011;7263;49.418;11.064;2022-08-19T07:25:38;12.93;;;11.80;;
14358;SDS011;7263;49.418;11.064;2022-08-19T07:28:05;13.90;;;12.60;;
14358;SDS011;7263;49.418;11.064;2022-08-19T07:30:36;11.55;;;10.45;;
14358;SDS011;7263;49.418;11.064;2022-08-19T07:33:07;11.38;;;10.43;;
14358;SDS011;7263;49.418;11.064;2022-08-19T07:35:34;11.50;;;10.50;;
14358;SDS011;7263;49.418;11.064;2022-08-19T07:38:01;12.23;;;11.02;;
14358;SDS011;7263;49.418;11.064;2022-08-19T07:40:29;12.48;;;11.27;;
14358;SDS011;7263;49.418;11.064;2022-08-19T07:42:56;13.40;;;12.02;;
14358;SDS011;7263;49.418;11.064;2022-08-19T07:45:23;12.95;;;11.73;;
14358;SDS011;7263;49.418;11.064;2022-08-19T07:47:50;12.55;;;11.35;;
14358;SDS011;7263;49.418;11.064;2022-08-19T07:50:19;13.43;;;12.13;;
14358;SDS011;7263;49.418;11.064;2022-08-19T07:52:46;13.00;;;11.63;;
14358;SDS011;7263;49.418;11.064;2022-08-19T07:55:15;13.93;;;12.73;;
14358;SDS011;7263;49.418;11.064;2022-08-19T07:57:43;13.38;;;12.20;;
14358;SDS011;7263;49.418;11.064;2022-08-19T08:00:10;13.15;;;12.00;;
14358;SDS011;7263;49.418;11.064;2022-08-19T08:02:38;14.07;;;12.77;;
14358;SDS011;7263;49.418;11.064;2022-08-19T08:05:07;14.02;;;12.82;;
14358;SDS011;7263;49.418;11.064;2022-08-19T08:07:53;15.18;;;13.60;;
14358;SDS011;7263;49.418;11.064;2022-08-19T08:10:38;14.30;;;13.02;;
14358;SDS011;7263;49.418;11.064;2022-08-19T08:13:05;13.30;;;12.10;;
14358;SDS011;7263;49.418;11.064;2022-08-19T08:15:32;14.10;;;12.90;;
14358;SDS011;7263;49.418;11.064;2022-08-19T08:17:59;13.23;;;12.02;;
14358;SDS011;7263;49.418;11.064;2022-08-19T08:20:27;13.07;;;11.60;;
14358;SDS011;7263;49.418;11.064;2022-08-19T08:22:55;13.55;;;12.25;;
14358;SDS011;7263;49.418;11.064;2022-08-19T08:25:39;14.23;;;12.57;;
14358;SDS011;7263;49.418;11.064;2022-08-19T08:28:06;13.82;;;12.63;;
14358;SDS011;7263;49.418;11.064;2022-08-19T08:30:34;14.27;;;13.00;;
14358;SDS011;7263;49.418;11.064;2022-08-19T08:33:04;13.45;;;12.20;;
14358;SDS011;7263;49.418;11.064;2022-08-19T08:35:31;12.25;;;11.25;;
14358;SDS011;7263;49.418;11.064;2022-08-19T08:38:00;16.42;;;14.20;;
14358;SDS011;7263;49.418;11.064;2022-08-19T08:40:29;16.00;;;14.40;;
14358;SDS011;7263;49.418;11.064;2022-08-19T08:43:05;16.10;;;14.40;;
14358;SDS011;7263;49.418;11.064;2022-08-19T08:45:36;17.40;;;15.55;;
14358;SDS011;7263;49.418;11.064;2022-08-19T08:48:13;19.17;;;17.33;;
14358;SDS011;7263;49.418;11.064;2022-08-19T08:50:46;20.95;;;18.85;;
14358;SDS011;7263;49.418;11.064;2022-08-19T08:53:19;20.23;;;17.98;;
14358;SDS011;7263;49.418;11.064;2022-08-19T08:55:47;20.80;;;18.70;;
14358;SDS011;7263;49.418;11.064;2022-08-19T08:58:15;19.67;;;17.65;;
14358;SDS011;7263;49.418;11.064;2022-08-19T09:00:48;21.13;;;19.13;;
14358;SDS011;7263;49.418;11.064;2022-08-19T09:03:17;20.75;;;18.67;;
14358;SDS011;7263;49.418;11.064;2022-08-19T09:05:49;22.13;;;20.02;;
14358;SDS011;7263;49.418;11.064;2022-08-19T09:08:28;21.52;;;19.48;;
14358;SDS011;7263;49.418;11.064;2022-08-19T09:11:05;21.05;;;18.90;;
14358;SDS011;7263;49.418;11.064;2022-08-19T09:13:36;22.25;;;20.15;;
14358;SDS011;7263;49.418;11.064;2022-08-19T09:16:13;22.00;;;20.00;;
14358;SDS011;7263;49.418;11.064;2022-08-19T09:18:44;22.75;;;20.60;;
14358;SDS011;7263;49.418;11.064;2022-08-19T09:21:13;22.50;;;20.30;;
14358;SDS011;7263;49.418;11.064;2022-08-19T09:23:42;23.30;;;21.15;;
14358;SDS011;7263;49.418;11.064;2022-08-19T09:26:10;22.17;;;19.98;;
14358;SDS011;7263;49.418;11.064;2022-08-19T09:28:38;24.10;;;21.70;;
14358;SDS011;7263;49.418;11.064;2022-08-19T09:31:07;21.80;;;19.50;;
14358;SDS011;7263;49.418;11.064;2022-08-19T09:33:34;20.55;;;17.75;;
14358;SDS011;7263;49.418;11.064;2022-08-19T09:36:02;20.42;;;18.60;;
14358;SDS011;7263;49.418;11.064;2022-08-19T09:38:30;20.35;;;18.25;;
14358;SDS011;7263;49.418;11.064;2022-08-19T09:41:02;19.13;;;17.40;;
14358;SDS011;7263;49.418;11.064;2022-08-19T09:43:30;20.58;;;17.55;;
14358;SDS011;7263;49.418;11.064;2022-08-19T09:45:58;19.70;;;17.73;;
14358;SDS011;7263;49.418;11.064;2022-08-19T09:48:25;19.63;;;17.60;;
14358;SDS011;7263;49.418;11.064;2022-08-19T09:50:52;19.98;;;17.98;;
14358;SDS011;7263;49.418;11.064;2022-08-19T09:53:19;18.05;;;16.20;;
14358;SDS011;7263;49.418;11.064;2022-08-19T09:55:47;17.75;;;16.15;;
14358;SDS011;7263;49.418;11.064;2022-08-19T09:58:16;18.88;;;17.08;;
14358;SDS011;7263;49.418;11.064;2022-08-19T10:00:42;21.30;;;17.77;;
14358;SDS011;7263;49.418;11.064;2022-08-19T10:03:10;19.02;;;17.15;;
14358;SDS011;7263;49.418;11.064;2022-08-19T10:05:37;20.90;;;19.00;;
14358;SDS011;7263;49.418;11.064;2022-08-19T10:08:17;19.85;;;17.88;;
14358;SDS011;7263;49.418;11.064;2022-08-19T10:10:46;21.27;;;18.95;;
14358;SDS011;7263;49.418;11.064;2022-08-19T10:13:13;24.33;;;20.33;;
14358;SDS011;7263;49.418;11.064;2022-08-19T10:15:45;22.50;;;20.25;;
14358;SDS011;7263;49.418;11.064;2022-08-19T10:18:14;21.48;;;19.27;;
14358;SDS011;7263;49.418;11.064;2022-08-19T10:20:42;20.60;;;18.60;;
14358;SDS011;7263;49.418;11.064;2022-08-19T10:23:10;20.13;;;18.23;;
14358;SDS011;7263;49.418;11.064;2022-08-19T10:25:37;20.90;;;17.98;;
14358;SDS011;7263;49.418;11.064;2022-08-19T10:28:04;20.55;;;18.40;;
14358;SDS011;7263;49.418;11.064;2022-08-19T10:30:33;19.45;;;17.75;;
14358;SDS011;7263;49.418;11.064;2022-08-19T10:33:01;18.65;;;16.85;;
14358;SDS011;7263;49.418;11.064;2022-08-19T10:35:28;19.70;;;17.67;;
14358;SDS011;7263;49.418;11.064;2022-08-19T10:37:56;20.02;;;18.17;;
14358;SDS011;7263;49.418;11.064;2022-08-19T10:40:24;19.20;;;17.30;;
14358;SDS011;7263;49.418;11.064;2022-08-19T10:42:52;19.80;;;17.83;;
14358;SDS011;7263;49.418;11.064;2022-08-19T10:45:20;19.88;;;17.70;;
14358;SDS011;7263;49.418;11.064;2022-08-19T10:47:52;19.02;;;17.02;;
14358;SDS011;7263;49.418;11.064;2022-08-19T10:50:19;20.15;;;17.63;;
14358;SDS011;7263;49.418;11.064;2022-08-19T10:53:04;18.38;;;16.48;;
14358;SDS011;7263;49.418;11.064;2022-08-19T10:55:33;18.85;;;16.85;;
14358;SDS011;7263;49.418;11.064;2022-08-19T10:58:20;18.50;;;16.67;;
14358;SDS011;7263;49.418;11.064;2022-08-19T11:00:53;18.55;;;16.63;;
14358;SDS011;7263;49.418;11.064;2022-08-19T11:03:22;18.05;;;16.17;;
14358;SDS011;7263;49.418;11.064;2022-08-19T11:05:56;17.77;;;16.02;;
14358;SDS011;7263;49.418;11.064;2022-08-19T11:08:24;18.52;;;16.80;;
14358;SDS011;7263;49.418;11.064;2022-08-19T11:10:52;19.17;;;17.55;;
14358;SDS011;7263;49.418;11.064;2022-08-19T11:13:21;19.80;;;17.83;;
14358;SDS011;7263;49.418;11.064;2022-08-19T11:15:55;18.92;;;17.00;;
14358;SDS011;7263;49.418;11.064;2022-08-19T11:18:24;18.63;;;16.73;;
14358;SDS011;7263;49.418;11.064;2022-08-19T11:20:52;18.20;;;16.40;;
14358;SDS011;7263;49.418;11.064;2022-08-19T11:23:19;17.88;;;16.27;;
14358;SDS011;7263;49.418;11.064;2022-08-19T11:25:46;17.63;;;15.82;;
14358;SDS011;7263;49.418;11.064;2022-08-19T11:28:13;18.38;;;15.88;;
14358;SDS011;7263;49.418;11.064;2022-08-19T11:30:39;17.80;;;16.02;;
14358;SDS011;7263;49.418;11.064;2022-08-19T11:33:06;17.67;;;15.98;;
14358;SDS011;7263;49.418;11.064;2022-08-19T11:35:39;19.33;;;17.33;;
14358;SDS011;7263;49.418;11.064;2022-08-19T11:38:06;18.90;;;17.05;;
14358;SDS011;7263;49.418;11.064;2022-08-19T11:40:33;20.65;;;17.20;;
14358;SDS011;7263;49.418;11.064;2022-08-19T11:43:00;21.20;;;18.83;;
14358;SDS011;7263;49.418;11.064;2022-08-19T11:45:27;20.20;;;18.30;;
14358;SDS011;7263;49.418;11.064;2022-08-19T11:47:55;21.70;;;19.70;;
14358;SDS011;7263;49.418;11.064;2022-08-19T11:50:22;22.35;;;20.25;;
14358;SDS011;7263;49.418;11.064;2022-08-19T11:52:50;20.50;;;18.55;;
14358;SDS011;7263;49.418;11.064;2022-08-19T11:55:20;21.40;;;19.17;;
14358;SDS011;7263;49.418;11.064;2022-08-19T11:57:47;22.27;;;20.33;;
14358;SDS011;7263;49.418;11.064;2022-08-19T12:00:14;22.05;;;19.83;;
14358;SDS011;7263;49.418;11.064;2022-08-19T12:02:41;23.50;;;21.40;;
14358;SDS011;7263;49.418;11.064;2022-08-19T12:05:08;24.83;;;22.30;;
14358;SDS011;7263;49.418;11.064;2022-08-19T12:07:36;23.70;;;21.50;;
14358;SDS011;7263;49.418;11.064;2022-08-19T12:10:04;31.40;;;28.05;;
14358;SDS011;7263;49.418;11.064;2022-08-19T12:12:31;43.05;;;31.67;;
14358;SDS011;7263;49.418;11.064;2022-08-19T12:14:58;45.33;;;35.25;;
14358;SDS011;7263;49.418;11.064;2022-08-19T12:17:26;33.13;;;27.95;;
14358;SDS011;7263;49.418;11.064;2022-08-19T12:19:53;28.13;;;25.33;;
14358;SDS011;7263;49.418;11.064;2022-08-19T12:22:21;30.35;;;27.15;;
14358;SDS011;7263;49.418;11.064;2022-08-19T12:24:48;27.50;;;24.83;;
14358;SDS011;7263;49.418;11.064;2022-08-19T12:27:18;27.67;;;24.88;;
14358;SDS011;7263;49.418;11.064;2022-08-19T12:29:45;29.00;;;26.10;;
14358;SDS011;7263;49.418;11.064;2022-08-19T12:32:12;28.30;;;25.40;;
14358;SDS011;7263;49.418;11.064;2022-08-19T12:34:39;28.23;;;25.25;;
14358;SDS011;7263;49.418;11.064;2022-08-19T12:37:07;27.92;;;25.20;;
14358;SDS011;7263;49.418;11.064;2022-08-19T12:39:34;27.48;;;24.98;;
14358;SDS011;7263;49.418;11.064;2022-08-19T12:42:02;27.77;;;25.17;;
14358;SDS011;7263;49.418;11.064;2022-08-19T12:44:31;29.02;;;26.30;;
14358;SDS011;7263;49.418;11.064;2022-08-19T12:46:58;31.00;;;26.83;;
14358;SDS011;7263;49.418;11.064;2022-08-19T12:49:26;29.10;;;26.25;;
14358;SDS011;7263;49.418;11.064;2022-08-19T12:51:54;33.70;;;29.10;;
14358;SDS011;7263;49.418;11.064;2022-08-19T12:54:22;33.43;;;29.93;;
14358;SDS011;7263;49.418;11.064;2022-08-19T12:56:49;33.45;;;29.95;;
14358;SDS011;7263;49.418;11.064;2022-08-19T12:59:16;36.73;;;32.93;;
14358;SDS011;7263;49.418;11.064;2022-08-19T13:01:45;33.88;;;29.95;;
14358;SDS011;7263;49.418;11.064;2022-08-19T13:04:12;32.90;;;29.40;;
14358;SDS011;7263;49.418;11.064;2022-08-19T13:06:39;31.48;;;28.48;;
14358;SDS011;7263;49.418;11.064;2022-08-19T13:09:06;29.92;;;27.05;;
14358;SDS011;7263;49.418;11.064;2022-08-19T13:11:33;31.52;;;28.30;;
14358;SDS011;7263;49.418;11.064;2022-08-19T13:14:01;31.48;;;28.38;;
14358;SDS011;7263;49.418;11.064;2022-08-19T13:16:29;32.28;;;29.00;;
14358;SDS011;7263;49.418;11.064;2022-08-19T13:18:57;32.95;;;29.50;;
14358;SDS011;7263;49.418;11.064;2022-08-19T13:21:25;32.60;;;29.00;;
14358;SDS011;7263;49.418;11.064;2022-08-19T13:23:54;32.08;;;28.88;;
14358;SDS011;7263;49.418;11.064;2022-08-19T13:26:23;31.65;;;28.50;;
14358;SDS011;7263;49.418;11.064;2022-08-19T13:28:51;31.77;;;28.67;;
14358;SDS011;7263;49.418;11.064;2022-08-19T13:31:36;32.85;;;29.73;;
14358;SDS011;7263;49.418;11.064;2022-08-19T13:34:27;33.60;;;30.10;;
14358;SDS011;7263;49.418;11.064;2022-08-19T13:36:56;33.05;;;29.80;;
14358;SDS011;7263;49.418;11.064;2022-08-19T13:39:24;33.13;;;29.70;;
14358;SDS011;7263;49.418;11.064;2022-08-19T13:41:51;33.90;;;30.38;;
14358;SDS011;7263;49.418;11.064;2022-08-19T13:44:19;35.92;;;32.30;;
14358;SDS011;7263;49.418;11.064;2022-08-19T13:46:46;32.83;;;29.48;;
14358;SDS011;7263;49.418;11.064;2022-08-19T13:49:17;34.10;;;30.45;;
14358;SDS011;7263;49.418;11.064;2022-08-19T13:51:46;34.00;;;29.92;;
14358;SDS011;7263;49.418;11.064;2022-08-19T13:54:13;32.85;;;29.30;;
14358;SDS011;7263;49.418;11.064;2022-08-19T13:56:41;34.15;;;30.67;;
14358;SDS011;7263;49.418;11.064;2022-08-19T13:59:09;36.10;;;32.47;;
14358;SDS011;7263;49.418;11.064;2022-08-19T14:01:36;33.40;;;29.90;;
14358;SDS011;7263;49.418;11.064;2022-08-19T14:04:03;36.60;;;32.38;;
14358;SDS011;7263;49.418;11.064;2022-08-19T14:06:31;38.80;;;32.27;;
14358;SDS011;7263;49.418;11.064;2022-08-19T14:08:59;36.08;;;32.30;;
14358;SDS011;7263;49.418;11.064;2022-08-19T14:11:27;37.70;;;33.88;;
14358;SDS011;7263;49.418;11.064;2022-08-19T14:13:54;37.30;;;33.50;;
14358;SDS011;7263;49.418;11.064;2022-08-19T14:16:21;37.17;;;33.22;;
14358;SDS011;7263;49.418;11.064;2022-08-19T14:18:49;36.33;;;32.73;;
14358;SDS011;7263;49.418;11.064;2022-08-19T14:21:17;37.67;;;33.83;;
14358;SDS011;7263;49.418;11.064;2022-08-19T14:23:48;33.00;;;29.63;;
14358;SDS011;7263;49.418;11.064;2022-08-19T14:26:17;31.63;;;28.40;;
14358;SDS011;7263;49.418;11.064;2022-08-19T14:28:45;38.60;;;33.10;;
14358;SDS011;7263;49.418;11.064;2022-08-19T14:31:13;35.83;;;29.95;;